Terminal Aerodrome Forecast
Issued by NWS

Home | Current Version | Previous Version | Text Only | Print | Product List | Glossary On
Versions: 1 2 3 4 5 6 7 8 9 10 11 12 13 14 15 16 17
000
FTUS46 KMFR 210500
TAFOTH
TAF
KOTH 210525Z 2106/2206 VRB03KT 5SM BR OVC005
     FM210900 14005KT 1SM BR OVC002
     FM211500 VRB03KT 4SM BR BKN004
     FM211700 VRB03KT P6SM SCT006
     FM212000 22010KT P6SM SCT120
     FM220300 VRB03KT P6SM OVC007=

USA.gov is the U.S. government's official web portal to all federal, state and local government web resources and services.